deformed-offering

Current conditions - KSJC (San Jose International)


Coded METAR: 2017/08/24 00:53 KSJC 240053Z 29008KT 7SM CLR 24/16 A2989 RMK AO2 SLP121 T02390161

Weather Report

Report issued: Thu 24th Aug at 17:53 PDT

Wind: gentle breeze from West-Northwest (290 degrees) at 8 knots (9 mph, 15 kph, Force 3)
Visibility: 7 statute miles
Cloud: Sky clear
Temperature: 75F / 24C
Dewpoint: 61F / 16C
Humidity: 61%
Pressure: 29.89 inches of mercury

Current conditions - KNUQ (Moffett NAS)


Coded METAR: 2017/08/24 00:56 KNUQ 240056Z 34010KT 8SM CLR 21/16 A2990 RMK AO2 SLP128 T02110156

Weather Report

Report issued: Thu 24th Aug at 17:56 PDT

Wind: gentle breeze from North-Northwest (340 degrees) at 10 knots (12 mph, 19 kph, Force 3)
Visibility: 8 statute miles
Cloud: Sky clear
Temperature: 70F / 21C
Dewpoint: 61F / 16C
Humidity: 73%
Pressure: 29.90 inches of mercury

Current conditions - KRHV (Reid-Hillview Airport - San Jose)


Coded METAR: 2017/08/24 00:47 KRHV 240047Z 32006KT 8SM SKC 26/15 A2990

Weather Report

Report issued: Thu 24th Aug at 17:47 PDT

Wind: light breeze from the Northwest (320 degrees) at 6 knots (7 mph, 11 kph, Force 2)
Visibility: 8 statute miles
Cloud: Sky clear
Temperature: 79F / 26C
Dewpoint: 59F / 15C
Humidity: 51%
Pressure: 29.90 inches of mercury

Current conditions - KPAO (Palo Alto Airport)


Coded METAR: 2017/08/24 00:47 KPAO 240047Z 33015KT 8SM SKC 21/16 A2989

Weather Report

Report issued: Thu 24th Aug at 17:47 PDT

Wind: moderate breeze from North-Northwest (330 degrees) at 15 knots (17 mph, 28 kph, Force 4)
Visibility: 8 statute miles
Cloud: Sky clear
Temperature: 70F / 21C
Dewpoint: 61F / 16C
Humidity: 73%
Pressure: 29.89 inches of mercury

 

deformed-offering